Time;durP1;ratioP1;P1;durP2;ratioP2;P2;SDS_P1;SDS_P2;PMS_P1;PMS_P2;Temp;Humidity;BMP_temperature;BMP_pressure;BME280_temperature;BME280_humidity;BME280_pressure;Samples;Min_cycle;Max_cycle;Signal;HPM_P1;HPM_P2
2023/01/20 00:00:45;;;;;;;8.45;4.40;;;;;;;-2.63;100.00;97630.31;2559172;28;20078;-83
2023/01/20 00:02:20;;;;;;;10.80;4.43;;;;;;;-2.57;100.00;97625.25;2560960;28;21051;-82
2023/01/20 00:03:35;;;;;;;9.20;4.45;;;;;;;-2.62;100.00;97624.34;2560582;28;20082;-82
2023/01/20 00:04:51;;;;;;;9.10;4.65;;;;;;;-2.69;100.00;97631.13;2559834;28;20051;-84
2023/01/20 00:06:08;;;;;;;10.45;4.47;;;;;;;-2.73;100.00;97635.34;2560628;28;20062;-81
2023/01/20 00:07:24;;;;;;;11.88;5.38;;;;;;;-2.92;100.00;97641.09;2560390;28;20050;-86
2023/01/20 00:08:40;;;;;;;9.65;4.75;;;;;;;-3.08;100.00;97640.00;2560871;28;20478;-82
2023/01/20 00:09:55;;;;;;;14.05;5.95;;;;;;;-3.06;100.00;97651.13;2560677;28;20300;-83
2023/01/20 00:11:11;;;;;;;13.68;5.60;;;;;;;-3.01;100.00;97646.91;2561362;28;20126;-82
2023/01/20 00:12:30;;;;;;;11.63;5.32;;;;;;;-2.87;100.00;97650.53;2559616;28;20062;-84
2023/01/20 00:13:46;;;;;;;14.50;6.70;;;;;;;-3.06;100.00;97646.88;2560203;28;20061;-84
2023/01/20 00:15:01;;;;;;;13.75;6.88;;;;;;;-3.08;100.00;97648.53;2559252;28;20631;-83
2023/01/20 00:16:17;;;;;;;16.30;7.20;;;;;;;-3.09;100.00;97649.38;2559614;28;20070;-87
2023/01/20 00:17:33;;;;;;;19.27;8.43;;;;;;;-3.19;100.00;97655.22;2559852;28;20585;-83
2023/01/20 00:18:49;;;;;;;16.90;8.02;;;;;;;-3.03;100.00;97657.16;2561930;28;20501;-81
2023/01/20 00:20:04;;;;;;;21.40;8.15;;;;;;;-3.13;100.00;97655.31;2559073;28;20046;-82
2023/01/20 00:21:21;;;;;;;24.48;8.98;;;;;;;-3.13;100.00;97660.44;2560232;28;20062;-85
2023/01/20 00:22:41;;;;;;;19.65;8.20;;;;;;;-3.09;100.00;97658.78;2560791;28;20133;-82
2023/01/20 00:23:56;;;;;;;20.15;8.80;;;;;;;-3.08;100.00;97655.38;2559164;28;20051;-82
2023/01/20 00:25:12;;;;;;;22.52;9.18;;;;;;;-3.13;100.00;97665.56;2559402;28;20059;-82
2023/01/20 00:26:27;;;;;;;17.15;8.32;;;;;;;-3.23;100.00;97659.44;2561055;28;20050;-82
2023/01/20 00:27:43;;;;;;;20.83;8.70;;;;;;;-3.22;100.00;97663.72;2559911;28;20371;-82
2023/01/20 00:28:59;;;;;;;20.15;9.27;;;;;;;-3.30;100.00;97666.19;2564710;28;20094;-84
2023/01/20 00:30:14;;;;;;;14.70;7.43;;;;;;;-3.41;100.00;97672.81;2563628;28;20059;-82
2023/01/20 00:31:31;;;;;;;12.13;6.25;;;;;;;-3.65;100.00;97668.19;2559546;28;20054;-82
2023/01/20 00:32:46;;;;;;;14.95;5.78;;;;;;;-3.39;100.00;97668.59;2560655;28;20502;-82
2023/01/20 00:34:03;;;;;;;9.48;4.38;;;;;;;-3.50;100.00;97673.56;2559480;28;20117;-82
2023/01/20 00:35:18;;;;;;;7.88;4.28;;;;;;;-3.74;100.00;97672.31;2560891;28;20078;-83
2023/01/20 00:36:34;;;;;;;12.57;5.75;;;;;;;-3.62;100.00;97681.91;2561383;28;20430;-85
2023/01/20 00:37:49;;;;;;;10.93;5.20;;;;;;;-3.27;100.00;97684.13;2558841;28;20052;-83
2023/01/20 00:39:05;;;;;;;10.32;4.70;;;;;;;-3.35;100.00;97684.84;2562127;28;20875;-84
2023/01/20 00:40:21;;;;;;;10.43;4.57;;;;;;;-3.31;100.00;97687.50;2559558;28;20055;-82
2023/01/20 00:41:36;;;;;;;13.63;5.00;;;;;;;-3.43;100.00;97687.31;2560578;28;20055;-82
2023/01/20 00:42:52;;;;;;;9.95;4.72;;;;;;;-3.56;100.00;97691.38;2562009;28;20063;-82
2023/01/20 00:44:08;;;;;;;7.78;3.83;;;;;;;-3.64;100.00;97696.34;2560033;28;20142;-82
2023/01/20 00:45:23;;;;;;;7.45;3.72;;;;;;;-3.41;100.00;97699.28;2561620;28;20609;-82
2023/01/20 00:46:39;;;;;;;10.65;3.78;;;;;;;-3.35;100.00;97695.97;2562035;28;20066;-82
2023/01/20 00:47:54;;;;;;;8.05;3.65;;;;;;;-3.37;100.00;97697.63;2560415;28;20090;-83
2023/01/20 00:49:10;;;;;;;7.57;3.58;;;;;;;-3.39;100.00;97699.31;2560380;28;20082;-83
2023/01/20 00:50:26;;;;;;;6.40;3.60;;;;;;;-3.51;100.00;97699.09;2560802;28;20530;-83
2023/01/20 00:51:41;;;;;;;9.57;4.30;;;;;;;-3.44;100.00;97706.06;2561988;28;20055;-83
2023/01/20 00:52:57;;;;;;;10.07;3.72;;;;;;;-3.53;100.00;97708.47;2559070;28;20055;-82
2023/01/20 00:54:13;;;;;;;6.95;3.13;;;;;;;-3.63;100.00;97703.22;2561697;28;20054;-83
2023/01/20 00:55:29;;;;;;;7.53;3.25;;;;;;;-3.58;100.00;97699.03;2561123;28;20055;-82
2023/01/20 00:56:44;;;;;;;8.35;3.92;;;;;;;-3.36;100.00;97704.47;2561789;28;20505;-82
2023/01/20 00:58:00;;;;;;;6.35;3.80;;;;;;;-3.46;100.00;97712.84;2561271;28;20051;-82
2023/01/20 00:59:16;;;;;;;9.43;3.75;;;;;;;-3.56;100.00;97711.84;2558997;28;20054;-83
2023/01/20 01:00:31;;;;;;;9.43;4.43;;;;;;;-3.39;100.00;97714.66;2559485;28;20066;-82
2023/01/20 01:01:47;;;;;;;8.43;3.72;;;;;;;-3.38;100.00;97712.97;2558776;28;20059;-83
2023/01/20 01:03:04;;;;;;;9.00;4.15;;;;;;;-3.38;100.00;97715.53;2558656;28;20166;-83
2023/01/20 01:04:19;;;;;;;9.13;4.28;;;;;;;-2.99;100.00;97720.38;2560472;28;20053;-88
2023/01/20 01:05:36;;;;;;;7.82;3.83;;;;;;;-3.06;100.00;97721.16;2561694;28;20062;-82
2023/01/20 01:06:51;;;;;;;7.50;3.88;;;;;;;-2.93;100.00;97718.72;2560497;28;20051;-84
2023/01/20 01:08:07;;;;;;;7.32;3.72;;;;;;;-3.01;100.00;97713.50;2564613;28;20399;-81
2023/01/20 01:09:23;;;;;;;8.32;4.32;;;;;;;-2.93;100.00;97718.72;2562031;28;20055;-84
2023/01/20 01:10:39;;;;;;;6.05;3.35;;;;;;;-3.26;100.00;97718.28;2560392;28;20058;-82
2023/01/20 01:11:54;;;;;;;9.40;3.88;;;;;;;-3.69;100.00;97726.13;2559122;28;20105;-84
2023/01/20 01:13:10;;;;;;;7.47;3.60;;;;;;;-3.80;100.00;97725.94;2558892;28;20047;-83
2023/01/20 01:14:26;;;;;;;10.75;3.97;;;;;;;-3.59;100.00;97732.25;2558591;28;20086;-82
2023/01/20 01:15:48;;;;;;;7.68;3.72;;;;;;;-3.60;100.00;97722.84;2559141;28;20059;-83
2023/01/20 01:17:03;;;;;;;9.93;4.45;;;;;;;-3.89;100.00;97728.31;2560533;28;20314;-84
2023/01/20 01:18:19;;;;;;;7.47;3.55;;;;;;;-3.87;100.00;97729.22;2558784;28;20059;-83
2023/01/20 01:19:35;;;;;;;8.40;3.70;;;;;;;-3.68;100.00;97738.06;2560305;28;20108;-81
2023/01/20 01:20:50;;;;;;;8.25;4.03;;;;;;;-3.59;100.00;97727.13;2561854;28;20055;-82
2023/01/20 01:22:06;;;;;;;7.88;3.60;;;;;;;-3.61;100.00;97732.25;2559449;28;20413;-82
2023/01/20 01:23:22;;;;;;;8.10;4.13;;;;;;;-3.55;100.00;97727.22;2561640;28;20556;-82
2023/01/20 01:24:37;;;;;;;6.40;3.35;;;;;;;-3.79;100.00;97737.00;2560762;28;20051;-82
2023/01/20 01:25:53;;;;;;;7.72;3.20;;;;;;;-4.08;100.00;97737.34;2560109;28;20055;-82
2023/01/20 01:27:09;;;;;;;9.55;3.70;;;;;;;-4.18;100.00;97741.44;2561660;28;20054;-84
2023/01/20 01:28:25;;;;;;;7.68;3.97;;;;;;;-4.06;100.00;97733.13;2562157;28;20047;-82
2023/01/20 01:29:40;;;;;;;7.13;4.00;;;;;;;-3.94;100.00;97738.47;2560963;28;20055;-82
2023/01/20 01:31:00;;;;;;;7.53;4.18;;;;;;;-3.97;100.00;97729.06;2562440;28;20130;-82
2023/01/20 01:32:16;;;;;;;9.43;4.32;;;;;;;-3.99;100.00;97729.84;2562466;28;20058;-82
2023/01/20 01:33:32;;;;;;;11.10;4.55;;;;;;;-3.84;100.00;97730.13;2561973;28;20074;-83
2023/01/20 01:34:47;;;;;;;8.65;4.13;;;;;;;-3.53;100.00;97727.25;2563041;28;20083;-82
2023/01/20 01:36:04;;;;;;;9.95;4.82;;;;;;;-3.39;100.00;97724.91;2563319;28;20129;-83
2023/01/20 01:37:20;;;;;;;10.68;4.45;;;;;;;-3.49;100.00;97718.78;2561782;28;20129;-83
2023/01/20 01:38:35;;;;;;;10.52;4.20;;;;;;;-3.83;100.00;97718.22;2561577;28;20050;-84
2023/01/20 01:39:51;;;;;;;8.60;4.43;;;;;;;-3.89;100.00;97718.97;2560451;28;20546;-84
2023/01/20 01:41:10;;;;;;;9.25;4.38;;;;;;;-3.65;100.00;97724.47;2561092;28;20055;-83
2023/01/20 01:42:25;;;;;;;8.18;4.15;;;;;;;-3.52;100.00;97717.84;2561948;28;20054;-86
2023/01/20 01:44:06;;;;;;;9.32;4.30;;;;;;;-3.82;100.00;97725.06;2562281;28;20055;-82
2023/01/20 01:45:24;;;;;;;12.25;4.47;;;;;;;-3.60;100.00;97718.59;2561205;28;20050;-85
2023/01/20 01:46:41;;;;;;;8.75;3.70;;;;;;;-3.89;100.00;97718.97;2560823;28;20051;-82
2023/01/20 01:48:05;;;;;;;10.38;4.22;;;;;;;-3.85;100.00;97724.97;2561064;28;20062;-84
2023/01/20 01:49:25;;;;;;;8.57;3.58;;;;;;;-3.79;100.00;97721.66;2560631;28;20476;-83
2023/01/20 01:50:49;;;;;;;11.88;4.43;;;;;;;-3.99;100.00;97722.19;2560049;28;20055;-83
2023/01/20 01:52:08;;;;;;;8.00;3.90;;;;;;;-4.09;100.00;97727.94;2560654;28;20509;-82
2023/01/20 01:53:27;;;;;;;9.18;5.13;;;;;;;-3.92;100.00;97729.13;2561415;28;20158;-82
2023/01/20 01:54:44;;;;;;;8.38;4.35;;;;;;;-3.96;100.00;97724.78;2562358;28;20082;-82
2023/01/20 01:56:01;;;;;;;11.20;4.95;;;;;;;-4.13;100.00;97730.47;2562704;28;20057;-83
2023/01/20 01:57:16;;;;;;;10.80;5.60;;;;;;;-3.98;100.00;97729.91;2561808;28;20051;-82
2023/01/20 01:58:37;;;;;;;12.43;5.20;;;;;;;-3.95;100.00;97734.19;2562316;28;20082;-81
2023/01/20 01:59:52;;;;;;;9.57;4.80;;;;;;;-3.76;100.00;97734.53;2561893;28;20047;-88
2023/01/20 02:01:08;;;;;;;10.57;4.30;;;;;;;-3.71;100.00;97736.31;2563359;28;20089;-82
2023/01/20 02:02:24;;;;;;;8.70;4.53;;;;;;;-3.79;100.00;97730.22;2561573;28;20051;-83
2023/01/20 02:04:06;;;;;;;11.65;4.13;;;;;;;-3.81;100.00;97737.00;2562248;28;20163;-82
2023/01/20 02:05:24;;;;;;;10.38;4.32;;;;;;;-3.93;100.00;97737.63;2556652;28;20043;-83
2023/01/20 02:06:44;;;;;;;12.38;3.92;;;;;;;-3.86;100.00;97736.91;2563057;28;20418;-82
2023/01/20 02:08:00;;;;;;;8.10;3.38;;;;;;;-4.06;100.00;97741.66;2560742;28;20690;-82
2023/01/20 02:09:16;;;;;;;10.70;4.40;;;;;;;-4.40;100.00;97733.31;2561181;28;20047;-82
2023/01/20 02:10:32;;;;;;;9.52;4.07;;;;;;;-4.43;100.00;97740.94;2560400;28;20055;-82
2023/01/20 02:11:51;;;;;;;13.07;4.25;;;;;;;-4.44;100.00;97736.66;2562736;28;20058;-81
2023/01/20 02:13:07;;;;;;;10.35;4.40;;;;;;;-4.45;100.00;97733.25;2560992;28;20061;-82
2023/01/20 02:14:29;;;;;;;12.68;4.93;;;;;;;-4.34;100.00;97735.13;2562518;28;20054;-82
2023/01/20 02:16:09;;;;;;;10.90;4.97;;;;;;;-4.29;100.00;97738.66;2562133;28;20059;-88
2023/01/20 02:17:30;;;;;;;10.23;4.65;;;;;;;-4.00;100.00;97738.38;2560931;28;20066;-83
2023/01/20 02:19:16;;;;;;;12.02;4.95;;;;;;;-3.76;100.00;97739.66;2562787;28;20096;-82
2023/01/20 02:20:50;;;;;;;11.60;4.70;;;;;;;-3.84;100.00;97742.91;2562263;28;20047;-82
2023/01/20 02:22:19;;;;;;;8.98;3.97;;;;;;;-3.87;100.00;97742.88;2562441;28;20073;-82
2023/01/20 02:23:56;;;;;;;9.93;4.38;;;;;;;-3.71;100.00;97745.69;2562116;28;20057;-82
2023/01/20 02:25:20;;;;;;;7.70;3.85;;;;;;;-3.93;100.00;97752.13;2561915;28;20055;-82
2023/01/20 02:26:51;;;;;;;10.98;4.75;;;;;;;-3.94;100.00;97753.81;2562292;28;20074;-82
2023/01/20 02:28:16;;;;;;;9.68;4.80;;;;;;;-4.31;100.00;97753.13;2560742;28;20047;-88
2023/01/20 02:29:43;;;;;;;9.05;4.72;;;;;;;-4.47;100.00;97749.38;2561129;28;20090;-83
2023/01/20 02:31:36;;;;;;;8.73;4.38;;;;;;;-4.15;100.00;97747.47;2562545;28;20137;-85
2023/01/20 02:32:58;;;;;;;14.65;4.88;;;;;;;-3.89;100.00;97748.78;2560817;28;21076;-89
2023/01/20 02:34:16;;;;;;;;;;;;;;;-3.80;100.00;97748.09;2563138;28;20514;-83
2023/01/20 02:35:44;;;;;;;9.38;3.85;;;;;;;-3.83;100.00;97754.88;2561097;28;19922;-83
2023/01/20 02:37:17;;;;;;;6.25;3.15;;;;;;;-4.06;100.00;97764.66;2560971;28;20050;-82
2023/01/20 02:38:42;;;;;;;11.75;4.10;;;;;;;-4.30;100.00;97763.34;2561946;28;20051;-83
2023/01/20 02:40:29;;;;;;;10.93;3.85;;;;;;;-4.55;100.00;97759.44;2560695;28;20136;-83
2023/01/20 02:42:06;;;;;;;11.85;4.43;;;;;;;-4.61;100.00;97761.84;2562393;28;20050;-82
2023/01/20 02:43:35;;;;;;;8.57;4.05;;;;;;;-4.56;100.00;97758.56;2560327;28;20793;-81
2023/01/20 02:45:06;;;;;;;8.48;4.78;;;;;;;-4.35;100.00;97758.97;2562294;28;20130;-84
2023/01/20 02:46:51;;;;;;;9.90;4.68;;;;;;;-4.15;100.00;97757.69;2561328;28;20051;-82
2023/01/20 02:48:17;;;;;;;13.80;5.30;;;;;;;-4.10;100.00;97755.22;2562025;28;20551;-83
2023/01/20 02:49:46;;;;;;;15.63;5.15;;;;;;;-4.07;100.00;97760.41;2560824;28;20133;-82
2023/01/20 02:51:15;;;;;;;11.20;5.25;;;;;;;-4.07;100.00;97764.63;2560465;28;20055;-82
2023/01/20 02:52:36;;;;;;;12.02;5.10;;;;;;;-3.98;100.00;97764.81;2561565;28;20417;-83
2023/01/20 02:54:01;;;;;;;11.10;5.60;;;;;;;-3.97;100.00;97767.41;2559900;28;20055;-84
2023/01/20 02:55:27;;;;;;;10.65;4.88;;;;;;;-4.14;100.00;97771.31;2561147;28;20047;-82
2023/01/20 02:56:44;;;;;;;12.65;5.13;;;;;;;-4.12;100.00;97773.09;2559537;28;20505;-84
2023/01/20 02:58:06;;;;;;;13.43;5.57;;;;;;;-4.32;100.00;97770.13;2561345;28;20142;-83
2023/01/20 02:59:26;;;;;;;19.23;7.13;;;;;;;-4.50;100.00;97770.59;2560784;28;20047;-82
2023/01/20 03:00:49;;;;;;;20.83;7.35;;;;;;;-4.47;100.00;97769.81;2560947;28;20051;-82
2023/01/20 03:02:09;;;;;;;19.65;7.43;;;;;;;-4.38;100.00;97774.25;2560913;28;20137;-83
2023/01/20 03:03:32;;;;;;;20.92;7.82;;;;;;;-4.17;100.00;97773.81;2562305;28;20089;-81
2023/01/20 03:04:55;;;;;;;15.40;7.30;;;;;;;-4.01;100.00;97769.88;2559674;28;20097;-85
2023/01/20 03:06:18;;;;;;;14.60;7.53;;;;;;;-3.86;100.00;97775.28;2561046;28;20130;-82
2023/01/20 03:07:37;;;;;;;20.17;8.65;;;;;;;-3.73;100.00;97765.28;2562075;28;20055;-82
2023/01/20 03:08:57;;;;;;;16.65;6.75;;;;;;;-3.65;100.00;97770.53;2560755;28;20051;-83
2023/01/20 03:10:17;;;;;;;17.73;7.63;;;;;;;-3.65;100.00;97768.81;2562727;28;20078;-82
2023/01/20 03:11:37;;;;;;;16.75;7.30;;;;;;;-3.59;100.00;97768.06;2559887;28;20070;-84
2023/01/20 03:13:01;;;;;;;17.48;6.53;;;;;;;-3.49;100.00;97772.50;2560794;28;20047;-82
2023/01/20 03:14:18;;;;;;;19.25;7.55;;;;;;;-3.39;100.00;97773.53;2562601;28;20055;-83
2023/01/20 03:16:03;;;;;;;13.30;6.53;;;;;;;-3.35;100.00;97779.56;2560364;28;20071;-83
2023/01/20 03:17:19;;;;;;;16.50;7.15;;;;;;;-3.37;100.00;97779.53;2558276;28;20149;-83
2023/01/20 03:18:36;;;;;;;16.65;6.82;;;;;;;-3.39;100.00;97782.91;2561394;28;20059;-84
2023/01/20 03:19:52;;;;;;;18.70;7.93;;;;;;;-3.38;100.00;97788.03;2561285;28;20098;-82
2023/01/20 03:21:09;;;;;;;16.30;7.07;;;;;;;-3.45;100.00;97786.22;2562418;28;20067;-83
2023/01/20 03:22:24;;;;;;;17.75;7.35;;;;;;;-3.36;100.00;97791.50;2562180;28;20410;-83
2023/01/20 03:23:47;;;;;;;18.02;7.45;;;;;;;-3.21;100.00;97795.13;2559314;28;20166;-86
2023/01/20 03:25:03;;;;;;;15.20;7.05;;;;;;;-3.05;100.00;97789.44;2559701;28;20183;-84
2023/01/20 03:26:21;;;;;;;16.65;7.32;;;;;;;-3.14;100.00;97791.84;2559527;28;20103;-83
2023/01/20 03:27:37;;;;;;;13.57;6.68;;;;;;;-3.19;100.00;97790.94;2560037;28;20519;-83
2023/01/20 03:28:53;;;;;;;13.57;6.35;;;;;;;-2.94;100.00;97789.59;2559274;28;20052;-83
2023/01/20 03:30:14;;;;;;;19.80;7.03;;;;;;;-2.84;100.00;97790.59;2560625;28;20081;-83
2023/01/20 03:31:35;;;;;;;14.90;6.65;;;;;;;-2.86;100.00;97788.03;2560988;28;20074;-82
2023/01/20 03:32:51;;;;;;;13.38;6.82;;;;;;;-2.85;100.00;97791.44;2561014;28;20055;-82
2023/01/20 03:34:11;;;;;;;14.68;6.88;;;;;;;-2.76;100.00;97794.16;2559051;28;20054;-86
2023/01/20 03:35:28;;;;;;;18.05;7.53;;;;;;;-2.66;100.00;97796.81;2560179;28;20605;-83
2023/01/20 03:36:44;;;;;;;16.90;7.35;;;;;;;-2.62;100.00;97807.16;2559641;28;20055;-82
2023/01/20 03:38:00;;;;;;;20.35;7.15;;;;;;;-2.73;100.00;97803.56;2560127;28;20619;-83
2023/01/20 03:39:16;;;;;;;14.30;6.20;;;;;;;-2.87;100.00;97798.25;2561516;28;20070;-83
2023/01/20 03:40:41;;;;;;;16.30;7.25;;;;;;;-2.88;100.00;97801.66;2559942;28;20062;-83
2023/01/20 03:42:06;;;;;;;15.73;6.90;;;;;;;-2.75;100.00;97792.44;2560520;28;20051;-83
2023/01/20 03:43:35;;;;;;;20.35;7.63;;;;;;;-2.82;100.00;97793.19;2560145;28;20498;-83
2023/01/20 03:45:00;;;;;;;18.85;7.57;;;;;;;-2.48;100.00;97798.78;2561146;28;20055;-81
2023/01/20 03:46:40;;;;;;;19.95;8.07;;;;;;;-2.52;100.00;97804.72;2560293;28;20426;-84
2023/01/20 03:47:58;;;;;;;16.52;7.40;;;;;;;-2.36;100.00;97800.69;2560574;28;20086;-85
2023/01/20 03:49:22;;;;;;;16.83;7.13;;;;;;;-2.28;100.00;97799.06;2559210;28;20494;-86
2023/01/20 03:50:55;;;;;;;19.17;7.30;;;;;;;-2.25;100.00;97808.50;2561008;28;20541;-82
2023/01/20 03:52:35;;;;;;;16.75;7.28;;;;;;;-2.29;100.00;97811.03;2559191;28;20499;-83
2023/01/20 03:54:08;;;;;;;17.80;7.57;;;;;;;-2.17;100.00;97810.31;2562237;28;20085;-82
2023/01/20 03:55:30;;;;;;;16.27;7.57;;;;;;;-2.15;100.00;97807.78;2559739;28;20533;-81
2023/01/20 03:56:55;;;;;;;14.18;7.20;;;;;;;-2.11;100.00;97819.78;2559760;28;20153;-84
2023/01/20 03:58:15;;;;;;;15.23;7.10;;;;;;;-2.30;100.00;97816.13;2561828;28;20504;-84
2023/01/20 03:59:37;;;;;;;14.75;6.95;;;;;;;-2.42;100.00;97816.84;2560219;28;20054;-83
2023/01/20 04:00:56;;;;;;;15.07;7.75;;;;;;;-2.28;100.00;97817.88;2559353;28;20077;-82
2023/01/20 04:02:11;;;;;;;16.33;8.07;;;;;;;-2.28;100.00;97817.00;2560210;28;20086;-83
2023/01/20 04:03:29;;;;;;;16.38;7.85;;;;;;;-2.32;100.00;97825.50;2559728;28;20051;-83
2023/01/20 04:04:47;;;;;;;14.90;6.72;;;;;;;-2.17;100.00;97814.56;2560799;28;20065;-83
2023/01/20 04:06:06;;;;;;;17.20;7.63;;;;;;;-2.16;100.00;97827.44;2562072;28;20193;-84
2023/01/20 04:07:25;;;;;;;16.42;7.22;;;;;;;-1.97;100.00;97819.09;2560375;28;20469;-82
2023/01/20 04:08:49;;;;;;;16.45;7.57;;;;;;;-1.95;100.00;97822.53;2562047;28;20153;-87
2023/01/20 04:10:10;;;;;;;20.17;7.88;;;;;;;-1.97;100.00;97819.94;2560378;28;20066;-82
2023/01/20 04:11:26;;;;;;;19.45;7.97;;;;;;;-2.12;100.00;97823.22;2560427;28;20082;-84
2023/01/20 04:12:42;;;;;;;19.30;8.38;;;;;;;-2.17;100.00;97827.41;2559629;28;20082;-82
2023/01/20 04:13:58;;;;;;;23.70;8.98;;;;;;;-2.34;100.00;97822.91;2560005;28;20452;-82
2023/01/20 04:15:15;;;;;;;23.02;9.02;;;;;;;-2.27;100.00;97827.28;2558995;28;20051;-83
2023/01/20 04:16:31;;;;;;;21.45;9.93;;;;;;;-2.04;100.00;97828.44;2561755;28;20518;-82
2023/01/20 04:17:46;;;;;;;22.42;10.05;;;;;;;-2.02;100.00;97827.63;2558996;28;20312;-82
2023/01/20 04:19:02;;;;;;;24.33;9.90;;;;;;;-1.91;100.00;97832.88;2559200;28;20965;-85
2023/01/20 04:20:18;;;;;;;22.58;9.70;;;;;;;-1.80;100.00;97827.00;2560734;28;20061;-85
2023/01/20 04:21:39;;;;;;;27.85;10.38;;;;;;;-2.03;100.00;97832.72;2564923;28;20059;-82
2023/01/20 04:22:57;;;;;;;22.23;9.50;;;;;;;-1.91;100.00;97830.31;2562508;28;20051;-81
2023/01/20 04:24:21;;;;;;;22.33;9.77;;;;;;;-2.10;100.00;97831.78;2561966;28;20170;-85
2023/01/20 04:25:37;;;;;;;20.17;9.73;;;;;;;-2.00;100.00;97837.88;2561328;28;20055;-82
2023/01/20 04:26:52;;;;;;;24.30;10.70;;;;;;;-2.20;100.00;97833.38;2561805;28;20502;-84
2023/01/20 04:28:08;;;;;;;26.10;10.00;;;;;;;-2.17;100.00;97835.97;2561329;28;20486;-83
2023/01/20 04:29:23;;;;;;;25.00;10.90;;;;;;;-2.04;100.00;97841.25;2561944;28;20055;-83
2023/01/20 04:30:39;;;;;;;25.38;9.70;;;;;;;-1.98;100.00;97838.75;2561117;28;20069;-84
2023/01/20 04:31:59;;;;;;;26.40;10.40;;;;;;;-1.94;100.00;97837.97;2564717;28;20438;-83
2023/01/20 04:33:15;;;;;;;32.83;11.18;;;;;;;-1.77;100.00;97842.44;2562263;28;20050;-82
2023/01/20 04:34:31;;;;;;;27.65;11.15;;;;;;;-1.65;100.00;97840.00;2559359;28;20054;-82
2023/01/20 04:35:46;;;;;;;23.85;11.32;;;;;;;-1.73;100.00;97839.06;2559633;28;20058;-83
2023/01/20 04:37:02;;;;;;;28.17;11.25;;;;;;;-1.78;100.00;97841.56;2561473;28;20488;-83
2023/01/20 04:38:18;;;;;;;25.45;10.75;;;;;;;-1.64;100.00;97841.72;2557344;28;20055;-83
2023/01/20 04:39:33;;;;;;;24.13;11.05;;;;;;;-1.61;100.00;97841.75;2558867;28;20143;-83
2023/01/20 04:40:49;;;;;;;26.35;11.05;;;;;;;-1.57;100.00;97851.22;2559300;28;20055;-83
2023/01/20 04:42:04;;;;;;;27.52;10.45;;;;;;;-1.57;100.00;97846.06;2559775;28;20586;-83
2023/01/20 04:43:20;;;;;;;24.80;11.30;;;;;;;-1.66;100.00;97853.69;2560949;28;20044;-83
2023/01/20 04:44:36;;;;;;;23.17;10.20;;;;;;;-1.52;100.00;97852.97;2560004;28;20051;-83
2023/01/20 04:45:51;;;;;;;22.42;11.23;;;;;;;-1.48;100.00;97868.41;2559431;28;20062;-84
2023/01/20 04:47:07;;;;;;;26.90;11.40;;;;;;;-1.61;100.00;97862.28;2559644;28;20090;-83
2023/01/20 04:48:22;;;;;;;23.65;11.07;;;;;;;-1.62;100.00;97860.56;2559535;28;20054;-83
2023/01/20 04:49:38;;;;;;;23.02;10.20;;;;;;;-1.60;100.00;97858.88;2559896;28;20113;-83
2023/01/20 04:50:53;;;;;;;24.30;11.07;;;;;;;-1.57;100.00;97853.78;2561420;28;20150;-85
2023/01/20 04:52:09;;;;;;;23.80;10.68;;;;;;;-1.56;100.00;97858.06;2560992;28;20108;-84
2023/01/20 04:53:25;;;;;;;26.67;9.93;;;;;;;-1.44;100.00;97861.59;2560647;28;20084;-83
2023/01/20 04:54:41;;;;;;;22.83;10.30;;;;;;;-1.43;100.00;97851.38;2559500;28;20055;-82
2023/01/20 04:55:56;;;;;;;23.60;10.98;;;;;;;-1.32;100.00;97859.19;2560112;28;20514;-83
2023/01/20 04:57:12;;;;;;;24.98;10.18;;;;;;;-1.46;100.00;97855.59;2561190;28;20162;-88
2023/01/20 04:58:27;;;;;;;26.10;10.63;;;;;;;-1.49;100.00;97856.41;2559795;28;20058;-84
2023/01/20 04:59:43;;;;;;;22.65;11.23;;;;;;;-1.60;100.00;97870.88;2559985;28;20055;-84
2023/01/20 05:01:01;;;;;;;23.50;10.75;;;;;;;-1.64;100.00;97869.97;2560133;28;20459;-83
2023/01/20 05:02:17;;;;;;;22.35;10.20;;;;;;;-1.65;100.00;97872.50;2560271;28;20081;-85
2023/01/20 05:03:34;;;;;;;23.08;11.00;;;;;;;-1.67;100.00;97872.50;2561757;28;20051;-84
2023/01/20 05:04:49;;;;;;;22.63;9.63;;;;;;;-1.59;100.00;97868.31;2561016;28;20467;-84
2023/01/20 05:06:05;;;;;;;21.23;9.73;;;;;;;-1.51;100.00;97870.09;2563779;28;20067;-83
2023/01/20 05:07:21;;;;;;;20.08;10.48;;;;;;;-1.24;100.00;97872.09;2563491;28;20094;-85
2023/01/20 05:08:37;;;;;;;22.17;9.95;;;;;;;-1.17;100.00;97861.03;2563402;28;20055;-84
2023/01/20 05:09:52;;;;;;;22.15;9.40;;;;;;;-1.07;100.00;97858.53;2560651;28;20417;-84
2023/01/20 05:11:08;;;;;;;20.23;9.93;;;;;;;-1.06;100.00;97865.41;2561834;28;20513;-87
2023/01/20 05:12:24;;;;;;;23.35;10.27;;;;;;;-0.97;100.00;97857.78;2562200;28;20055;-83
2023/01/20 05:13:39;;;;;;;23.13;10.20;;;;;;;-1.02;100.00;97856.88;2560267;28;20050;-83
2023/01/20 05:14:55;;;;;;;20.58;10.30;;;;;;;-1.06;100.00;97863.72;2560851;28;20086;-84
2023/01/20 05:16:11;;;;;;;23.90;9.50;;;;;;;-1.24;100.00;97863.53;2563103;28;20150;-83
2023/01/20 05:17:27;;;;;;;20.40;9.70;;;;;;;-1.19;100.00;97867.00;2562342;28;20074;-85
2023/01/20 05:18:42;;;;;;;21.05;9.98;;;;;;;-1.08;100.00;97864.53;2562484;28;20051;-84
2023/01/20 05:19:58;;;;;;;21.40;9.65;;;;;;;-1.20;100.00;97865.28;2562579;28;20710;-84
2023/01/20 05:21:13;;;;;;;23.52;10.00;;;;;;;-1.20;100.00;97868.69;2562322;28;20134;-90
2023/01/20 05:22:32;;;;;;;27.10;10.65;;;;;;;-1.23;100.00;97862.69;2562213;28;20085;-85
2023/01/20 05:23:47;;;;;;;24.52;10.77;;;;;;;-1.19;100.00;97872.13;2563036;28;20059;-86
2023/01/20 05:25:03;;;;;;;21.20;10.55;;;;;;;-1.21;100.00;97873.84;2563560;28;20050;-84
2023/01/20 05:26:21;;;;;;;19.58;9.55;;;;;;;-1.18;100.00;97868.72;2561796;28;20886;-84
2023/01/20 05:27:36;;;;;;;23.83;9.98;;;;;;;-1.23;100.00;97870.41;2561924;28;20161;-88
2023/01/20 05:28:52;;;;;;;22.42;9.30;;;;;;;-1.35;100.00;97869.41;2561863;28;20055;-87
2023/01/20 05:30:08;;;;;;;26.73;10.35;;;;;;;-1.25;100.00;97872.09;2563611;28;20121;-84
2023/01/20 05:31:24;;;;;;;24.70;10.23;;;;;;;-1.26;100.00;97870.34;2563050;28;20051;-83
2023/01/20 05:32:40;;;;;;;24.70;10.95;;;;;;;-1.39;100.00;97870.25;2560723;28;20055;-87
2023/01/20 05:33:56;;;;;;;22.27;9.98;;;;;;;-1.29;100.00;97877.19;2560137;28;20047;-84
2023/01/20 05:35:11;;;;;;;22.00;10.18;;;;;;;-1.20;100.00;97871.25;2560972;28;20047;-86
2023/01/20 05:36:27;;;;;;;21.02;9.90;;;;;;;-1.26;100.00;97878.94;2562003;28;20061;-83
2023/01/20 05:37:43;;;;;;;19.40;9.32;;;;;;;-1.23;100.00;97878.09;2562018;28;20489;-85
2023/01/20 05:38:58;;;;;;;24.00;10.75;;;;;;;-1.20;100.00;97868.69;2560406;28;20146;-84
2023/01/20 05:40:15;;;;;;;24.95;11.18;;;;;;;-1.36;100.00;97880.53;2562081;28;20055;-85
2023/01/20 05:41:31;;;;;;;21.48;10.25;;;;;;;-1.35;100.00;97884.84;2562490;28;20054;-84
2023/01/20 05:42:46;;;;;;;23.70;10.52;;;;;;;-1.48;100.00;97883.81;2565942;28;20046;-84
2023/01/20 05:44:02;;;;;;;28.25;11.18;;;;;;;-1.61;100.00;97885.41;2556966;28;20130;-84
2023/01/20 05:45:18;;;;;;;26.20;11.00;;;;;;;-1.50;100.00;97889.81;2561198;28;20505;-84
2023/01/20 05:46:33;;;;;;;25.45;11.05;;;;;;;-1.38;100.00;97897.66;2561268;28;20123;-84
2023/01/20 05:47:57;;;;;;;25.02;10.65;;;;;;;-1.39;100.00;97895.03;2561974;28;20170;-87
2023/01/20 05:49:12;;;;;;;27.23;11.73;;;;;;;-1.50;100.00;97895.78;2561477;28;20054;-84
2023/01/20 05:50:28;;;;;;;28.88;12.05;;;;;;;-1.37;100.00;97895.91;2560756;28;20059;-85
2023/01/20 05:51:44;;;;;;;28.25;12.63;;;;;;;-1.35;100.00;97895.09;2562941;28;20086;-84
2023/01/20 05:52:59;;;;;;;25.35;11.18;;;;;;;-1.12;100.00;97889.31;2562125;28;20419;-85
2023/01/20 05:54:15;;;;;;;28.77;11.95;;;;;;;-1.06;100.00;97889.41;2560155;28;20047;-84
2023/01/20 05:55:30;;;;;;;27.20;12.05;;;;;;;-1.06;100.00;97891.09;2561990;28;20057;-82
2023/01/20 05:56:48;;;;;;;28.40;12.48;;;;;;;-1.04;100.00;97890.28;2560804;28;20389;-84
2023/01/20 05:58:04;;;;;;;24.58;11.77;;;;;;;-1.01;100.00;97892.00;2559998;28;20550;-84
2023/01/20 05:59:19;;;;;;;27.95;11.98;;;;;;;-1.20;100.00;97894.38;2560372;28;20051;-84
2023/01/20 06:00:35;;;;;;;29.17;12.52;;;;;;;-1.18;100.00;97890.16;2562099;28;20471;-83
2023/01/20 06:01:51;;;;;;;29.73;11.65;;;;;;;-1.21;100.00;97900.38;2561625;28;20061;-88
2023/01/20 06:03:06;;;;;;;28.65;12.85;;;;;;;-0.98;100.00;97886.03;2562035;28;20413;-84